Francis Benedict — WDC2633 — position and weather

sailwx.info

Track history (hours):
 
Tides and Currents Weather Stations Pressure Air Temp Water Temp Dewpoint Dewpoint Depression Visibility Wind Speed Wind Dir Waves Ship Positions

Francis Benedict

Owner: Kirby Inland Marine LP, Houston, TX. More information available from US FCC via Universal Licensing System and Coast Guard Vessel Documentation Center.

Last reported at 2017-Nov-29 14:31 UTC. Time now 2017-Dec-11 00:30 UTC.
Position N 32°44' W 091°06'.
Warning: this ship's position is 11 days out of date.

Length 218 m; draft 2.7 m.

Type: Towing. MMSI: 366995820.

Date/timePositionNaut miles runAvg speedWind from/ knotsBaromVisibWave heightAir tempDewpointWater temp
2017-Nov-29 14:31N 32°44' W 091°06'2 4.6
2017-Nov-29 14:00N 32°44' W 091°04'6 3.6
2017-Nov-29 12:29N 32°40' W 091°08'2 3.9
2017-Nov-29 11:59N 32°38' W 091°09'2 3.8
2017-Nov-29 11:30N 32°36' W 091°09'2 4.3
2017-Nov-29 11:01N 32°35' W 091°07'2 3.9
2017-Nov-29 10:30N 32°33' W 091°06'4 3.8
2017-Nov-29 09:34N 32°30' W 091°07'0 5.0
2017-Nov-29 09:31N 32°29' W 091°07'2 4.5
2017-Nov-29 09:00N 32°28' W 091°06'2 4.6
2017-Nov-29 08:31N 32°26' W 091°03'2 4.4
2017-Nov-29 08:00N 32°26' W 091°01'2 3.7
2017-Nov-29 07:31N 32°24' W 090°59'2 3.3
2017-Nov-29 07:00N 32°23' W 091°00'2 3.7
2017-Nov-29 06:30N 32°21' W 090°59'2 4.8
2017-Nov-29 06:01N 32°21' W 090°56'2 4.2
2017-Nov-29 05:30N 32°20' W 090°54'2 4.8
2017-Nov-29 05:00N 32°18' W 090°56'0 0.3
2017-Nov-29 04:31N 32°18' W 090°56'0 0.0
2017-Nov-29 04:00N 32°18' W 090°56'0 0.1
2017-Nov-29 03:31N 32°18' W 090°56'1 1.0
2017-Nov-29 03:01N 32°18' W 090°56'2 3.3
2017-Nov-29 02:30N 32°16' W 090°57'2 4.3
2017-Nov-29 02:00N 32°15' W 090°59'2 4.6
2017-Nov-29 01:31N 32°12' W 090°59'2 4.5
2017-Nov-29 01:00N 32°10' W 090°60'3 4.1
2017-Nov-29 00:23N 32°08' W 091°01'  
2017-Nov-24 09:17N 31°42' W 091°24'6 8.8
2017-Nov-24 08:39N 31°47' W 091°21'2 8.6
2017-Nov-24 08:25N 31°49' W 091°21'9 7.8
2017-Nov-24 07:15N 31°54' W 091°12'3 8.4
2017-Nov-24 06:56N 31°57' W 091°12'4 7.5
2017-Nov-24 06:28N 31°59' W 091°08'4 8.6
2017-Nov-24 06:00N 32°01' W 091°04'5 9.1
2017-Nov-24 05:30N 32°05' W 091°05'3 5.2
2017-Nov-24 05:00N 32°08' W 091°05'2 4.8
2017-Nov-24 04:30N 32°07' W 091°03'4 7.5
2017-Nov-24 04:00N 32°10' W 091°00'4 8.8
2017-Nov-24 03:30N 32°15' W 090°59'4 8.6
2017-Nov-24 03:00N 32°18' W 090°55'3 5.8
2017-Nov-24 02:30N 32°21' W 090°55'4 7.4
2017-Nov-24 02:00N 32°21' W 090°59'3 6.1
2017-Nov-24 01:30N 32°24' W 090°59'4 8.0
2017-Nov-24 01:01N 32°26' W 091°03'4 8.3
2017-Nov-24 00:30N 32°29' W 091°07'4 8.6
2017-Nov-24 00:00N 32°33' W 091°06'4 8.6
2017-Nov-23 23:30N 32°37' W 091°09'  
Track history (hours):
 
Tides and Currents Weather Stations Pressure Air Temp Water Temp Dewpoint Dewpoint Depression Visibility Wind Speed Wind Dir Waves Ship Positions

Francis Benedict

Owner: Kirby Inland Marine LP, Houston, TX. More information available from US FCC via Universal Licensing System and Coast Guard Vessel Documentation Center.

Last reported at 2017-Nov-29 14:31 UTC. Time now 2017-Dec-11 00:30 UTC.
Position N 32°44' W 091°06'.
Warning: this ship's position is 11 days out of date.

Length 218 m; draft 2.7 m.

Type: Towing. MMSI: 366995820.

Date/timePositionNaut miles runAvg speedWind from/ knotsBaromVisibWave heightAir tempDewpointWater temp
2017-Nov-29 14:31N 32°44' W 091°06'2 4.6
2017-Nov-29 14:00N 32°44' W 091°04'6 3.6
2017-Nov-29 12:29N 32°40' W 091°08'2 3.9
2017-Nov-29 11:59N 32°38' W 091°09'2 3.8
2017-Nov-29 11:30N 32°36' W 091°09'2 4.3
2017-Nov-29 11:01N 32°35' W 091°07'2 3.9
2017-Nov-29 10:30N 32°33' W 091°06'4 3.8
2017-Nov-29 09:34N 32°30' W 091°07'0 5.0
2017-Nov-29 09:31N 32°29' W 091°07'2 4.5
2017-Nov-29 09:00N 32°28' W 091°06'2 4.6
2017-Nov-29 08:31N 32°26' W 091°03'2 4.4
2017-Nov-29 08:00N 32°26' W 091°01'2 3.7
2017-Nov-29 07:31N 32°24' W 090°59'2 3.3
2017-Nov-29 07:00N 32°23' W 091°00'2 3.7
2017-Nov-29 06:30N 32°21' W 090°59'2 4.8
2017-Nov-29 06:01N 32°21' W 090°56'2 4.2
2017-Nov-29 05:30N 32°20' W 090°54'2 4.8
2017-Nov-29 05:00N 32°18' W 090°56'0 0.3
2017-Nov-29 04:31N 32°18' W 090°56'0 0.0
2017-Nov-29 04:00N 32°18' W 090°56'0 0.1
2017-Nov-29 03:31N 32°18' W 090°56'1 1.0
2017-Nov-29 03:01N 32°18' W 090°56'2 3.3
2017-Nov-29 02:30N 32°16' W 090°57'2 4.3
2017-Nov-29 02:00N 32°15' W 090°59'2 4.6
2017-Nov-29 01:31N 32°12' W 090°59'2 4.5
2017-Nov-29 01:00N 32°10' W 090°60'3 4.1
2017-Nov-29 00:23N 32°08' W 091°01'  
2017-Nov-24 09:17N 31°42' W 091°24'6 8.8
2017-Nov-24 08:39N 31°47' W 091°21'2 8.6
2017-Nov-24 08:25N 31°49' W 091°21'9 7.8
2017-Nov-24 07:15N 31°54' W 091°12'3 8.4
2017-Nov-24 06:56N 31°57' W 091°12'4 7.5
2017-Nov-24 06:28N 31°59' W 091°08'4 8.6
2017-Nov-24 06:00N 32°01' W 091°04'5 9.1
2017-Nov-24 05:30N 32°05' W 091°05'3 5.2
2017-Nov-24 05:00N 32°08' W 091°05'2 4.8
2017-Nov-24 04:30N 32°07' W 091°03'4 7.5
2017-Nov-24 04:00N 32°10' W 091°00'4 8.8
2017-Nov-24 03:30N 32°15' W 090°59'4 8.6
2017-Nov-24 03:00N 32°18' W 090°55'3 5.8
2017-Nov-24 02:30N 32°21' W 090°55'4 7.4
2017-Nov-24 02:00N 32°21' W 090°59'3 6.1
2017-Nov-24 01:30N 32°24' W 090°59'4 8.0
2017-Nov-24 01:01N 32°26' W 091°03'4 8.3
2017-Nov-24 00:30N 32°29' W 091°07'4 8.6
2017-Nov-24 00:00N 32°33' W 091°06'4 8.6
2017-Nov-23 23:30N 32°37' W 091°09'  

Dump ship's entire track history